This is the latest recevied weather packets stored in our database for station/object EB1GOD-1. If no packets are shown the sender has not sent any weather packets the latest 10 day(s).
| Time | Temp. | Humidity | Pressure | Rain* | Wind** | Luminosity | Snow |
|---|---|---|---|---|---|---|---|
| 1777620679 | 14.44° C | 89% | 1157.7 hPa | - | - | - | - |
| 1777619778 | 14.44° C | 86% | 1157.6 hPa | - | - | - | - |
| 1777618877 | 13.89° C | 91% | 1157.5 hPa | - | - | - | - |
| 1777617977 | 13.33° C | 89% | 1157.4 hPa | - | - | - | - |
| 1777617077 | 13.33° C | 90% | 1157.4 hPa | - | - | - | - |
| 1777616177 | 13.33° C | 88% | 1157.3 hPa | - | - | - | - |
| 1777615277 | 13.89° C | 88% | 1157.2 hPa | - | - | - | - |
| 1777614377 | 13.89° C | 88% | 1157.2 hPa | - | - | - | - |
| 1777613477 | 13.89° C | 86% | 1157.3 hPa | - | - | - | - |
| 1777612577 | 14.44° C | 83% | 1157.2 hPa | - | - | - | - |
| 1777611677 | 14.44° C | 84% | 1157.2 hPa | - | - | - | - |
| 1777610777 | 14.44° C | 85% | 1157.2 hPa | - | - | - | - |
| 1777609877 | 15° C | 83% | 1157.1 hPa | - | - | - | - |
| 1777608977 | 14.44° C | 85% | 1157.3 hPa | - | - | - | - |
| 1777608077 | 14.44° C | 85% | 1157.2 hPa | - | - | - | - |
| 1777607177 | 14.44° C | 87% | 1157.3 hPa | - | - | - | - |
| 1777606277 | 14.44° C | 86% | 1157.6 hPa | - | - | - | - |
| 1777605376 | 15° C | 83% | 1157.7 hPa | - | - | - | - |
| 1777604476 | 15° C | 83% | 1157.6 hPa | - | - | - | - |
| 1777603576 | 14.44° C | 84% | 1157.4 hPa | - | - | - | - |
| 1777602676 | 15° C | 81% | 1157.5 hPa | - | - | - | - |
| 1777601776 | 15° C | 81% | 1157.6 hPa | - | - | - | - |
| 1777600884 | 15° C | 83% | 1157.5 hPa | - | - | - | - |
| 1777599976 | 13.89° C | 85% | 1157.7 hPa | - | - | - | - |
| 1777599076 | 14.44° C | 82% | 1157.7 hPa | - | - | - | - |
* Rain since midnight (hover to see other rain measurements)
** Current wind speed in m/s (hover to see current wind gust speed)